Nelda Faye — WCX5150 — position and weather

sailwx.info

Track history (hours):
 
Tides and Currents Weather Stations Pressure Air Temp Water Temp Dewpoint Dewpoint Depression Visibility Wind Speed Wind Dir Waves Ship Positions

Nelda Faye

Owner: TARA CROSBY INC, GOLDEN MEADOW, LA. More information available from US FCC via Universal Licensing System and Coast Guard Vessel Documentation Center.

Last reported at 2018-Jan-23 13:59 UTC. Time now 2018-Jan-23 14:08 UTC.
Position N 28°39' W 096°33'.

Length 21 m; draft 2.5 m.

Type: Towing. MMSI: 367028910.

Date/timePositionNaut miles runAvg speedWind from/ knotsBaromVisibWave heightAir tempDewpointWater temp
2018-Jan-23 13:59N 28°39' W 096°33'0 0.0
2018-Jan-23 13:22N 28°39' W 096°33'0 0.0
2018-Jan-23 12:52N 28°39' W 096°33'0 0.0
2018-Jan-23 12:28N 28°39' W 096°33'0 0.0
2018-Jan-22 13:54N 28°38' W 096°33'0 0.0
2018-Jan-22 12:54N 28°38' W 096°33'0 0.0
2018-Jan-22 12:30N 28°38' W 096°33'0 0.0
2018-Jan-22 11:57N 28°38' W 096°33'  
2018-Jan-19 16:46N 29°31' W 094°53'2 6.0
2018-Jan-19 16:30N 29°32' W 094°54'3 6.1
2018-Jan-19 16:00N 29°34' W 094°56'3 5.8
2018-Jan-19 15:30N 29°37' W 094°57'3 6.5
2018-Jan-19 15:00N 29°40' W 094°59'3 6.4
2018-Jan-19 14:30N 29°42' W 095°01'3 5.2
2018-Jan-19 14:00N 29°44' W 095°03'  
Track history (hours):
 
Tides and Currents Weather Stations Pressure Air Temp Water Temp Dewpoint Dewpoint Depression Visibility Wind Speed Wind Dir Waves Ship Positions

Nelda Faye

Owner: TARA CROSBY INC, GOLDEN MEADOW, LA. More information available from US FCC via Universal Licensing System and Coast Guard Vessel Documentation Center.

Last reported at 2018-Jan-23 13:59 UTC. Time now 2018-Jan-23 14:08 UTC.
Position N 28°39' W 096°33'.

Length 21 m; draft 2.5 m.

Type: Towing. MMSI: 367028910.

Date/timePositionNaut miles runAvg speedWind from/ knotsBaromVisibWave heightAir tempDewpointWater temp
2018-Jan-23 13:59N 28°39' W 096°33'0 0.0
2018-Jan-23 13:22N 28°39' W 096°33'0 0.0
2018-Jan-23 12:52N 28°39' W 096°33'0 0.0
2018-Jan-23 12:28N 28°39' W 096°33'0 0.0
2018-Jan-22 13:54N 28°38' W 096°33'0 0.0
2018-Jan-22 12:54N 28°38' W 096°33'0 0.0
2018-Jan-22 12:30N 28°38' W 096°33'0 0.0
2018-Jan-22 11:57N 28°38' W 096°33'  
2018-Jan-19 16:46N 29°31' W 094°53'2 6.0
2018-Jan-19 16:30N 29°32' W 094°54'3 6.1
2018-Jan-19 16:00N 29°34' W 094°56'3 5.8
2018-Jan-19 15:30N 29°37' W 094°57'3 6.5
2018-Jan-19 15:00N 29°40' W 094°59'3 6.4
2018-Jan-19 14:30N 29°42' W 095°01'3 5.2
2018-Jan-19 14:00N 29°44' W 095°03'  

Dump ship's entire track history